sensor_id;sensor_type;location;lat;lon;timestamp;temperature;humidity
3566;DHT22;1797;51.844;7.684;2022-11-20T00:00:35;-4.00;97.40
3566;DHT22;1797;51.844;7.684;2022-11-20T00:03:01;-4.10;1.00
3566;DHT22;1797;51.844;7.684;2022-11-20T00:05:26;-4.10;99.90
3566;DHT22;1797;51.844;7.684;2022-11-20T00:07:52;-4.10;99.90
3566;DHT22;1797;51.844;7.684;2022-11-20T00:10:18;-4.20;99.90
3566;DHT22;1797;51.844;7.684;2022-11-20T00:12:43;-4.20;99.90
3566;DHT22;1797;51.844;7.684;2022-11-20T00:15:09;-4.20;99.90
3566;DHT22;1797;51.844;7.684;2022-11-20T00:17:38;-4.30;99.90
3566;DHT22;1797;51.844;7.684;2022-11-20T00:20:04;-4.30;1.00
3566;DHT22;1797;51.844;7.684;2022-11-20T00:22:30;-4.20;1.00
3566;DHT22;1797;51.844;7.684;2022-11-20T00:24:55;-4.20;1.00
3566;DHT22;1797;51.844;7.684;2022-11-20T00:27:23;-4.20;1.00
3566;DHT22;1797;51.844;7.684;2022-11-20T00:29:48;-4.30;99.90
3566;DHT22;1797;51.844;7.684;2022-11-20T00:32:14;-4.30;38.40
3566;DHT22;1797;51.844;7.684;2022-11-20T00:34:39;-4.40;1.00
3566;DHT22;1797;51.844;7.684;2022-11-20T00:37:05;-4.40;1.00
3566;DHT22;1797;51.844;7.684;2022-11-20T00:39:31;-4.50;1.00
3566;DHT22;1797;51.844;7.684;2022-11-20T00:41:56;-4.40;1.00
3566;DHT22;1797;51.844;7.684;2022-11-20T00:44:22;-4.50;65.80
3566;DHT22;1797;51.844;7.684;2022-11-20T00:46:48;-4.40;1.00
3566;DHT22;1797;51.844;7.684;2022-11-20T00:49:13;-4.40;1.00
3566;DHT22;1797;51.844;7.684;2022-11-20T00:51:39;-4.50;99.90
3566;DHT22;1797;51.844;7.684;2022-11-20T00:54:05;-4.50;99.90
3566;DHT22;1797;51.844;7.684;2022-11-20T00:56:30;-4.50;1.00
3566;DHT22;1797;51.844;7.684;2022-11-20T00:58:59;-4.50;1.00
3566;DHT22;1797;51.844;7.684;2022-11-20T01:01:26;-4.60;99.90
3566;DHT22;1797;51.844;7.684;2022-11-20T01:03:57;-4.60;1.00
3566;DHT22;1797;51.844;7.684;2022-11-20T01:06:25;-4.70;99.90
3566;DHT22;1797;51.844;7.684;2022-11-20T01:08:53;-4.80;1.00
3566;DHT22;1797;51.844;7.684;2022-11-20T01:11:22;-4.80;99.90
3566;DHT22;1797;51.844;7.684;2022-11-20T01:13:49;-4.70;99.90
3566;DHT22;1797;51.844;7.684;2022-11-20T01:16:21;-4.70;1.00
3566;DHT22;1797;51.844;7.684;2022-11-20T01:18:51;-4.80;1.00
3566;DHT22;1797;51.844;7.684;2022-11-20T01:21:21;-4.70;1.00
3566;DHT22;1797;51.844;7.684;2022-11-20T01:23:56;-4.80;1.00
3566;DHT22;1797;51.844;7.684;2022-11-20T01:26:34;-4.80;1.00
3566;DHT22;1797;51.844;7.684;2022-11-20T01:29:31;-4.80;99.90
3566;DHT22;1797;51.844;7.684;2022-11-20T01:32:23;-4.80;99.90
3566;DHT22;1797;51.844;7.684;2022-11-20T01:34:49;-4.80;99.90
3566;DHT22;1797;51.844;7.684;2022-11-20T01:37:15;-4.90;1.00
3566;DHT22;1797;51.844;7.684;2022-11-20T01:39:40;-4.80;1.00
3566;DHT22;1797;51.844;7.684;2022-11-20T01:42:07;-4.80;66.60
3566;DHT22;1797;51.844;7.684;2022-11-20T01:44:55;-4.80;99.90
3566;DHT22;1797;51.844;7.684;2022-11-20T01:47:31;-4.80;99.90
3566;DHT22;1797;51.844;7.684;2022-11-20T01:50:17;-4.80;1.00
3566;DHT22;1797;51.844;7.684;2022-11-20T01:52:47;-4.80;99.90
3566;DHT22;1797;51.844;7.684;2022-11-20T01:55:20;-4.80;99.90
3566;DHT22;1797;51.844;7.684;2022-11-20T01:57:47;-4.80;1.00
3566;DHT22;1797;51.844;7.684;2022-11-20T02:00:19;-4.80;1.00
3566;DHT22;1797;51.844;7.684;2022-11-20T02:02:57;-4.80;1.00
3566;DHT22;1797;51.844;7.684;2022-11-20T02:05:43;-4.80;99.90
3566;DHT22;1797;51.844;7.684;2022-11-20T02:08:10;-4.90;99.90
3566;DHT22;1797;51.844;7.684;2022-11-20T02:10:37;-4.90;75.60
3566;DHT22;1797;51.844;7.684;2022-11-20T02:13:03;-5.00;1.00
3566;DHT22;1797;51.844;7.684;2022-11-20T02:15:47;-4.90;99.90
3566;DHT22;1797;51.844;7.684;2022-11-20T02:18:19;-4.90;99.90
3566;DHT22;1797;51.844;7.684;2022-11-20T02:20:48;-4.90;1.00
3566;DHT22;1797;51.844;7.684;2022-11-20T02:23:38;-4.90;1.00
3566;DHT22;1797;51.844;7.684;2022-11-20T02:26:07;-5.00;1.00
3566;DHT22;1797;51.844;7.684;2022-11-20T02:28:34;-5.00;99.90
3566;DHT22;1797;51.844;7.684;2022-11-20T02:31:00;-5.00;1.00
3566;DHT22;1797;51.844;7.684;2022-11-20T02:33:26;-4.90;1.00
3566;DHT22;1797;51.844;7.684;2022-11-20T02:35:52;-4.90;1.00
3566;DHT22;1797;51.844;7.684;2022-11-20T02:38:18;-4.90;1.00
3566;DHT22;1797;51.844;7.684;2022-11-20T02:40:43;-4.90;1.00
3566;DHT22;1797;51.844;7.684;2022-11-20T02:43:09;-4.90;1.00
3566;DHT22;1797;51.844;7.684;2022-11-20T02:45:35;-5.00;99.90
3566;DHT22;1797;51.844;7.684;2022-11-20T02:48:01;-5.10;1.00
3566;DHT22;1797;51.844;7.684;2022-11-20T02:50:27;-5.10;1.00
3566;DHT22;1797;51.844;7.684;2022-11-20T02:52:52;-5.10;99.90
3566;DHT22;1797;51.844;7.684;2022-11-20T02:55:18;-5.10;99.90
3566;DHT22;1797;51.844;7.684;2022-11-20T02:57:44;-5.20;1.00
3566;DHT22;1797;51.844;7.684;2022-11-20T03:00:10;-5.20;99.90
3566;DHT22;1797;51.844;7.684;2022-11-20T03:02:36;-5.30;99.90
3566;DHT22;1797;51.844;7.684;2022-11-20T03:05:02;-5.30;1.00
3566;DHT22;1797;51.844;7.684;2022-11-20T03:07:28;-5.30;1.00
3566;DHT22;1797;51.844;7.684;2022-11-20T03:09:54;-5.30;99.90
3566;DHT22;1797;51.844;7.684;2022-11-20T03:12:19;-5.30;99.90
3566;DHT22;1797;51.844;7.684;2022-11-20T03:14:45;-5.40;99.90
3566;DHT22;1797;51.844;7.684;2022-11-20T03:17:10;-5.40;99.90
3566;DHT22;1797;51.844;7.684;2022-11-20T03:19:36;-5.30;1.00
3566;DHT22;1797;51.844;7.684;2022-11-20T03:22:02;-5.30;1.00
3566;DHT22;1797;51.844;7.684;2022-11-20T03:24:28;-5.40;1.00
3566;DHT22;1797;51.844;7.684;2022-11-20T03:26:54;-5.40;1.00
3566;DHT22;1797;51.844;7.684;2022-11-20T03:29:19;-5.40;1.00
3566;DHT22;1797;51.844;7.684;2022-11-20T03:31:45;-5.40;1.00
3566;DHT22;1797;51.844;7.684;2022-11-20T03:34:11;-5.50;99.90
3566;DHT22;1797;51.844;7.684;2022-11-20T03:36:42;-5.50;99.90
3566;DHT22;1797;51.844;7.684;2022-11-20T03:39:09;-5.60;99.90
3566;DHT22;1797;51.844;7.684;2022-11-20T03:41:39;-5.60;26.10
3566;DHT22;1797;51.844;7.684;2022-11-20T03:44:07;-5.60;1.00
3566;DHT22;1797;51.844;7.684;2022-11-20T03:46:33;-5.50;99.90
3566;DHT22;1797;51.844;7.684;2022-11-20T03:48:59;-5.40;1.00
3566;DHT22;1797;51.844;7.684;2022-11-20T03:51:27;-5.20;99.90
3566;DHT22;1797;51.844;7.684;2022-11-20T03:53:55;-5.10;99.90
3566;DHT22;1797;51.844;7.684;2022-11-20T03:56:30;-5.00;99.90
3566;DHT22;1797;51.844;7.684;2022-11-20T03:58:57;-5.00;99.90
3566;DHT22;1797;51.844;7.684;2022-11-20T04:01:25;-4.90;99.90
3566;DHT22;1797;51.844;7.684;2022-11-20T04:03:55;-4.90;1.00
3566;DHT22;1797;51.844;7.684;2022-11-20T04:06:24;-4.90;1.00
3566;DHT22;1797;51.844;7.684;2022-11-20T04:08:50;-4.70;1.00
3566;DHT22;1797;51.844;7.684;2022-11-20T04:11:19;-4.60;1.00
3566;DHT22;1797;51.844;7.684;2022-11-20T04:13:58;-4.70;1.00
3566;DHT22;1797;51.844;7.684;2022-11-20T04:16:25;-4.60;1.00
3566;DHT22;1797;51.844;7.684;2022-11-20T04:18:52;-4.60;1.00
3566;DHT22;1797;51.844;7.684;2022-11-20T04:21:18;-4.50;1.00
3566;DHT22;1797;51.844;7.684;2022-11-20T04:23:44;-4.50;94.60
3566;DHT22;1797;51.844;7.684;2022-11-20T04:26:11;-4.50;99.90
3566;DHT22;1797;51.844;7.684;2022-11-20T04:28:38;-4.40;99.90
3566;DHT22;1797;51.844;7.684;2022-11-20T04:31:12;-4.40;99.90
3566;DHT22;1797;51.844;7.684;2022-11-20T04:33:38;-4.20;1.00
3566;DHT22;1797;51.844;7.684;2022-11-20T04:38:31;-4.20;1.00
3566;DHT22;1797;51.844;7.684;2022-11-20T04:41:01;-4.10;1.00
3566;DHT22;1797;51.844;7.684;2022-11-20T04:43:27;-4.00;1.00
3566;DHT22;1797;51.844;7.684;2022-11-20T04:45:54;-4.00;1.00
3566;DHT22;1797;51.844;7.684;2022-11-20T04:48:20;-4.00;1.00
3566;DHT22;1797;51.844;7.684;2022-11-20T04:50:46;-3.90;1.00
3566;DHT22;1797;51.844;7.684;2022-11-20T04:53:11;-3.80;1.00
3566;DHT22;1797;51.844;7.684;2022-11-20T04:55:37;-3.80;1.00
3566;DHT22;1797;51.844;7.684;2022-11-20T04:58:03;-3.80;1.00
3566;DHT22;1797;51.844;7.684;2022-11-20T05:00:28;-3.70;1.00
3566;DHT22;1797;51.844;7.684;2022-11-20T05:02:54;-3.70;22.20
3566;DHT22;1797;51.844;7.684;2022-11-20T05:05:23;-3.60;1.00
3566;DHT22;1797;51.844;7.684;2022-11-20T05:07:52;-3.60;1.00
3566;DHT22;1797;51.844;7.684;2022-11-20T05:10:22;-3.60;1.00
3566;DHT22;1797;51.844;7.684;2022-11-20T05:12:47;-3.60;1.00
3566;DHT22;1797;51.844;7.684;2022-11-20T05:15:13;-3.60;1.00
3566;DHT22;1797;51.844;7.684;2022-11-20T05:17:39;-3.50;1.00
3566;DHT22;1797;51.844;7.684;2022-11-20T05:20:05;-3.40;1.00
3566;DHT22;1797;51.844;7.684;2022-11-20T05:22:31;-3.50;99.90
3566;DHT22;1797;51.844;7.684;2022-11-20T05:24:57;-3.50;99.90
3566;DHT22;1797;51.844;7.684;2022-11-20T05:27:22;-3.40;99.90
3566;DHT22;1797;51.844;7.684;2022-11-20T05:29:48;-3.50;99.90
3566;DHT22;1797;51.844;7.684;2022-11-20T05:32:13;-3.40;1.00
3566;DHT22;1797;51.844;7.684;2022-11-20T05:34:39;-3.40;1.00
3566;DHT22;1797;51.844;7.684;2022-11-20T05:37:05;-3.30;1.00
3566;DHT22;1797;51.844;7.684;2022-11-20T05:39:31;-3.40;1.00
3566;DHT22;1797;51.844;7.684;2022-11-20T05:41:56;-3.30;1.00
3566;DHT22;1797;51.844;7.684;2022-11-20T05:44:41;-3.30;24.90
3566;DHT22;1797;51.844;7.684;2022-11-20T05:47:10;-3.30;99.90
3566;DHT22;1797;51.844;7.684;2022-11-20T05:49:35;-3.30;99.90
3566;DHT22;1797;51.844;7.684;2022-11-20T05:52:01;-3.20;99.90
3566;DHT22;1797;51.844;7.684;2022-11-20T05:54:26;-3.20;99.90
3566;DHT22;1797;51.844;7.684;2022-11-20T05:56:52;-3.20;99.90
3566;DHT22;1797;51.844;7.684;2022-11-20T05:59:18;-3.20;99.90
3566;DHT22;1797;51.844;7.684;2022-11-20T06:01:43;-3.10;1.00
3566;DHT22;1797;51.844;7.684;2022-11-20T06:04:09;-3.10;1.00
3566;DHT22;1797;51.844;7.684;2022-11-20T06:06:35;-3.20;1.00
3566;DHT22;1797;51.844;7.684;2022-11-20T06:09:00;-3.20;1.00
3566;DHT22;1797;51.844;7.684;2022-11-20T06:11:26;-3.10;1.00
3566;DHT22;1797;51.844;7.684;2022-11-20T06:13:51;-3.10;1.00
3566;DHT22;1797;51.844;7.684;2022-11-20T06:16:19;-3.10;1.00
3566;DHT22;1797;51.844;7.684;2022-11-20T06:18:46;-3.00;1.00
3566;DHT22;1797;51.844;7.684;2022-11-20T06:21:14;-3.00;1.00
3566;DHT22;1797;51.844;7.684;2022-11-20T06:23:41;-2.90;1.00
3566;DHT22;1797;51.844;7.684;2022-11-20T06:26:10;-2.90;1.00
3566;DHT22;1797;51.844;7.684;2022-11-20T06:28:36;-2.80;1.00
3566;DHT22;1797;51.844;7.684;2022-11-20T06:31:02;-2.80;1.00
3566;DHT22;1797;51.844;7.684;2022-11-20T06:33:28;-2.80;1.00
3566;DHT22;1797;51.844;7.684;2022-11-20T06:35:58;-2.80;1.00
3566;DHT22;1797;51.844;7.684;2022-11-20T06:38:25;-2.70;1.00
3566;DHT22;1797;51.844;7.684;2022-11-20T06:40:51;-2.70;1.00
3566;DHT22;1797;51.844;7.684;2022-11-20T06:43:16;-2.70;1.00
3566;DHT22;1797;51.844;7.684;2022-11-20T06:45:42;-2.70;1.00
3566;DHT22;1797;51.844;7.684;2022-11-20T06:48:08;-2.70;1.00
3566;DHT22;1797;51.844;7.684;2022-11-20T06:50:37;-2.80;1.00
3566;DHT22;1797;51.844;7.684;2022-11-20T06:53:04;-2.70;1.00
3566;DHT22;1797;51.844;7.684;2022-11-20T06:55:30;-2.80;1.00
3566;DHT22;1797;51.844;7.684;2022-11-20T06:57:56;-2.70;1.00
3566;DHT22;1797;51.844;7.684;2022-11-20T07:00:22;-2.70;1.00
3566;DHT22;1797;51.844;7.684;2022-11-20T07:02:47;-2.70;1.00
3566;DHT22;1797;51.844;7.684;2022-11-20T07:05:13;-2.70;1.00
3566;DHT22;1797;51.844;7.684;2022-11-20T07:07:38;-2.70;1.00
3566;DHT22;1797;51.844;7.684;2022-11-20T07:10:04;-2.70;1.00
3566;DHT22;1797;51.844;7.684;2022-11-20T07:12:30;-2.70;1.00
3566;DHT22;1797;51.844;7.684;2022-11-20T07:14:56;-2.70;1.00
3566;DHT22;1797;51.844;7.684;2022-11-20T07:17:22;-2.70;1.00
3566;DHT22;1797;51.844;7.684;2022-11-20T07:19:47;-2.70;1.00
3566;DHT22;1797;51.844;7.684;2022-11-20T07:22:13;-2.80;1.00
3566;DHT22;1797;51.844;7.684;2022-11-20T07:24:38;-2.80;1.00
3566;DHT22;1797;51.844;7.684;2022-11-20T07:27:04;-2.80;1.00
3566;DHT22;1797;51.844;7.684;2022-11-20T07:29:30;-2.80;1.00
3566;DHT22;1797;51.844;7.684;2022-11-20T07:31:55;-2.80;1.00
3566;DHT22;1797;51.844;7.684;2022-11-20T07:34:22;-2.80;1.00
3566;DHT22;1797;51.844;7.684;2022-11-20T07:36:47;-2.70;1.00
3566;DHT22;1797;51.844;7.684;2022-11-20T07:39:13;-2.70;1.00
3566;DHT22;1797;51.844;7.684;2022-11-20T07:41:38;-2.70;1.00
3566;DHT22;1797;51.844;7.684;2022-11-20T07:44:04;-2.70;1.00
3566;DHT22;1797;51.844;7.684;2022-11-20T07:46:30;-2.60;1.00
3566;DHT22;1797;51.844;7.684;2022-11-20T07:48:55;-2.60;17.90
3566;DHT22;1797;51.844;7.684;2022-11-20T07:51:21;-2.50;52.60
3566;DHT22;1797;51.844;7.684;2022-11-20T07:53:47;-2.50;93.90
3566;DHT22;1797;51.844;7.684;2022-11-20T07:56:13;-2.40;93.80
3566;DHT22;1797;51.844;7.684;2022-11-20T07:58:39;-2.40;92.50
3566;DHT22;1797;51.844;7.684;2022-11-20T08:01:06;-2.40;97.60
3566;DHT22;1797;51.844;7.684;2022-11-20T08:03:32;-2.30;98.00
3566;DHT22;1797;51.844;7.684;2022-11-20T08:06:01;-2.30;99.90
3566;DHT22;1797;51.844;7.684;2022-11-20T08:08:28;-2.30;99.90
3566;DHT22;1797;51.844;7.684;2022-11-20T08:10:54;-2.20;99.90
3566;DHT22;1797;51.844;7.684;2022-11-20T08:13:41;-2.10;99.90
3566;DHT22;1797;51.844;7.684;2022-11-20T08:16:25;-2.10;99.90
3566;DHT22;1797;51.844;7.684;2022-11-20T08:18:51;-2.00;99.90
3566;DHT22;1797;51.844;7.684;2022-11-20T08:21:16;-1.90;99.90
3566;DHT22;1797;51.844;7.684;2022-11-20T08:23:42;-1.80;99.90
3566;DHT22;1797;51.844;7.684;2022-11-20T08:26:07;-1.80;99.90
3566;DHT22;1797;51.844;7.684;2022-11-20T08:28:33;-1.80;44.70
3566;DHT22;1797;51.844;7.684;2022-11-20T08:30:59;-1.80;1.00
3566;DHT22;1797;51.844;7.684;2022-11-20T08:33:25;-1.80;1.00
3566;DHT22;1797;51.844;7.684;2022-11-20T08:35:51;-1.80;1.00
3566;DHT22;1797;51.844;7.684;2022-11-20T08:38:16;-1.80;1.00
3566;DHT22;1797;51.844;7.684;2022-11-20T08:40:42;-1.80;1.00
3566;DHT22;1797;51.844;7.684;2022-11-20T08:43:28;-1.80;1.00
3566;DHT22;1797;51.844;7.684;2022-11-20T08:45:55;-1.80;1.00
3566;DHT22;1797;51.844;7.684;2022-11-20T08:48:21;-1.70;1.00
3566;DHT22;1797;51.844;7.684;2022-11-20T08:50:46;-1.60;1.00
3566;DHT22;1797;51.844;7.684;2022-11-20T08:53:12;-1.60;1.00
3566;DHT22;1797;51.844;7.684;2022-11-20T08:55:37;-1.50;1.00
3566;DHT22;1797;51.844;7.684;2022-11-20T08:58:08;-1.50;1.00
3566;DHT22;1797;51.844;7.684;2022-11-20T09:00:33;-1.50;1.00
3566;DHT22;1797;51.844;7.684;2022-11-20T09:03:00;-1.40;1.00
3566;DHT22;1797;51.844;7.684;2022-11-20T09:05:26;-1.30;1.00
3566;DHT22;1797;51.844;7.684;2022-11-20T09:07:55;-1.30;18.90
3566;DHT22;1797;51.844;7.684;2022-11-20T09:10:21;-1.20;26.20
3566;DHT22;1797;51.844;7.684;2022-11-20T09:12:48;-1.00;35.80
3566;DHT22;1797;51.844;7.684;2022-11-20T09:15:14;-0.90;58.10
3566;DHT22;1797;51.844;7.684;2022-11-20T09:17:40;-0.80;99.90
3566;DHT22;1797;51.844;7.684;2022-11-20T09:20:05;-0.60;99.90
3566;DHT22;1797;51.844;7.684;2022-11-20T09:22:31;-0.50;99.90
3566;DHT22;1797;51.844;7.684;2022-11-20T09:24:56;-0.40;99.90
3566;DHT22;1797;51.844;7.684;2022-11-20T09:27:22;-0.30;99.90
3566;DHT22;1797;51.844;7.684;2022-11-20T09:29:48;-0.20;99.90
3566;DHT22;1797;51.844;7.684;2022-11-20T09:32:14;-0.10;99.90
3566;DHT22;1797;51.844;7.684;2022-11-20T09:34:39;0.10;99.90
3566;DHT22;1797;51.844;7.684;2022-11-20T09:37:05;0.20;77.60
3566;DHT22;1797;51.844;7.684;2022-11-20T09:39:30;0.30;1.00
3566;DHT22;1797;51.844;7.684;2022-11-20T09:45:00;0.70;1.00
3566;DHT22;1797;51.844;7.684;2022-11-20T09:55:54;1.20;1.00
3566;DHT22;1797;51.844;7.684;2022-11-20T09:58:39;1.40;95.90
3566;DHT22;1797;51.844;7.684;2022-11-20T10:01:20;1.60;1.00
3566;DHT22;1797;51.844;7.684;2022-11-20T10:06:39;1.90;20.00
3566;DHT22;1797;51.844;7.684;2022-11-20T10:11:55;2.10;1.00
3566;DHT22;1797;51.844;7.684;2022-11-20T10:25:48;2.80;1.00
3566;DHT22;1797;51.844;7.684;2022-11-20T10:31:01;3.10;99.90
3566;DHT22;1797;51.844;7.684;2022-11-20T10:33:38;3.10;21.20
3566;DHT22;1797;51.844;7.684;2022-11-20T10:36:09;3.20;99.90
3566;DHT22;1797;51.844;7.684;2022-11-20T10:39:00;3.40;99.90
3566;DHT22;1797;51.844;7.684;2022-11-20T10:41:34;3.50;1.00
3566;DHT22;1797;51.844;7.684;2022-11-20T10:44:16;3.70;1.00
3566;DHT22;1797;51.844;7.684;2022-11-20T10:47:19;3.60;1.00
3566;DHT22;1797;51.844;7.684;2022-11-20T10:49:49;3.90;1.00
3566;DHT22;1797;51.844;7.684;2022-11-20T10:52:22;4.00;99.90
3566;DHT22;1797;51.844;7.684;2022-11-20T10:55:23;4.10;15.70
3566;DHT22;1797;51.844;7.684;2022-11-20T11:00:32;4.40;1.00
3566;DHT22;1797;51.844;7.684;2022-11-20T11:02:58;4.70;1.00
3566;DHT22;1797;51.844;7.684;2022-11-20T11:05:41;5.00;1.00
3566;DHT22;1797;51.844;7.684;2022-11-20T11:08:14;5.20;99.90
3566;DHT22;1797;51.844;7.684;2022-11-20T11:10:53;5.20;71.40
3566;DHT22;1797;51.844;7.684;2022-11-20T11:13:30;5.30;1.00
3566;DHT22;1797;51.844;7.684;2022-11-20T11:15:56;5.40;1.00
3566;DHT22;1797;51.844;7.684;2022-11-20T11:18:33;5.60;1.00
3566;DHT22;1797;51.844;7.684;2022-11-20T11:21:01;5.80;1.00
3566;DHT22;1797;51.844;7.684;2022-11-20T11:23:33;6.00;1.00
3566;DHT22;1797;51.844;7.684;2022-11-20T11:26:00;6.10;99.90
3566;DHT22;1797;51.844;7.684;2022-11-20T11:28:27;6.10;99.90
3566;DHT22;1797;51.844;7.684;2022-11-20T11:30:53;6.10;99.90
3566;DHT22;1797;51.844;7.684;2022-11-20T11:33:27;6.20;99.90
3566;DHT22;1797;51.844;7.684;2022-11-20T11:36:04;6.10;99.90
3566;DHT22;1797;51.844;7.684;2022-11-20T11:38:42;6.00;99.90
3566;DHT22;1797;51.844;7.684;2022-11-20T11:41:23;6.10;99.90
3566;DHT22;1797;51.844;7.684;2022-11-20T11:43:55;6.20;99.90
3566;DHT22;1797;51.844;7.684;2022-11-20T11:46:49;6.40;75.10
3566;DHT22;1797;51.844;7.684;2022-11-20T11:49:18;6.50;55.60
3566;DHT22;1797;51.844;7.684;2022-11-20T11:55:12;6.70;1.00
3566;DHT22;1797;51.844;7.684;2022-11-20T11:57:20;6.70;1.00
3566;DHT22;1797;51.844;7.684;2022-11-20T11:59:54;6.40;1.00
3566;DHT22;1797;51.844;7.684;2022-11-20T12:05:00;6.00;1.00
3566;DHT22;1797;51.844;7.684;2022-11-20T12:07:41;5.80;1.00
3566;DHT22;1797;51.844;7.684;2022-11-20T12:15:47;5.20;1.00
3566;DHT22;1797;51.844;7.684;2022-11-20T12:18:22;5.10;1.00
3566;DHT22;1797;51.844;7.684;2022-11-20T12:23:45;5.00;53.80
3566;DHT22;1797;51.844;7.684;2022-11-20T12:31:36;5.30;93.90
3566;DHT22;1797;51.844;7.684;2022-11-20T12:39:43;5.00;99.90
3566;DHT22;1797;51.844;7.684;2022-11-20T12:53:59;4.60;1.00
3566;DHT22;1797;51.844;7.684;2022-11-20T12:56:46;4.60;1.00
3566;DHT22;1797;51.844;7.684;2022-11-20T12:59:27;4.50;1.00
3566;DHT22;1797;51.844;7.684;2022-11-20T13:07:26;4.10;1.00
3566;DHT22;1797;51.844;7.684;2022-11-20T13:09:53;4.00;1.00
3566;DHT22;1797;51.844;7.684;2022-11-20T13:12:34;3.90;1.00
3566;DHT22;1797;51.844;7.684;2022-11-20T13:18:03;4.10;99.90
3566;DHT22;1797;51.844;7.684;2022-11-20T13:20:30;4.10;88.30
3566;DHT22;1797;51.844;7.684;2022-11-20T13:22:58;4.30;3.00
3566;DHT22;1797;51.844;7.684;2022-11-20T13:25:25;4.40;1.00
3566;DHT22;1797;51.844;7.684;2022-11-20T13:27:51;4.40;1.00
3566;DHT22;1797;51.844;7.684;2022-11-20T13:30:19;4.40;1.00
3566;DHT22;1797;51.844;7.684;2022-11-20T13:35:54;4.20;1.00
3566;DHT22;1797;51.844;7.684;2022-11-20T13:38:20;4.10;1.00
3566;DHT22;1797;51.844;7.684;2022-11-20T13:40:57;3.90;1.00
3566;DHT22;1797;51.844;7.684;2022-11-20T13:43:35;3.90;1.00
3566;DHT22;1797;51.844;7.684;2022-11-20T13:46:05;3.70;1.00
3566;DHT22;1797;51.844;7.684;2022-11-20T13:48:33;3.80;1.00
3566;DHT22;1797;51.844;7.684;2022-11-20T13:51:07;3.70;20.00
3566;DHT22;1797;51.844;7.684;2022-11-20T14:01:38;3.60;99.90
3566;DHT22;1797;51.844;7.684;2022-11-20T14:04:08;3.60;99.90
3566;DHT22;1797;51.844;7.684;2022-11-20T14:06:44;3.70;99.90
3566;DHT22;1797;51.844;7.684;2022-11-20T14:09:29;3.70;99.90
3566;DHT22;1797;51.844;7.684;2022-11-20T14:11:55;3.70;99.90
3566;DHT22;1797;51.844;7.684;2022-11-20T14:14:23;3.70;99.90
3566;DHT22;1797;51.844;7.684;2022-11-20T14:16:51;3.70;99.90
3566;DHT22;1797;51.844;7.684;2022-11-20T14:21:51;3.60;99.90
3566;DHT22;1797;51.844;7.684;2022-11-20T14:24:22;3.60;99.90
3566;DHT22;1797;51.844;7.684;2022-11-20T14:26:49;3.60;99.90
3566;DHT22;1797;51.844;7.684;2022-11-20T14:29:18;3.60;99.90
3566;DHT22;1797;51.844;7.684;2022-11-20T14:31:50;3.60;99.90
3566;DHT22;1797;51.844;7.684;2022-11-20T14:34:28;3.60;57.80
3566;DHT22;1797;51.844;7.684;2022-11-20T14:37:03;3.50;62.60
3566;DHT22;1797;51.844;7.684;2022-11-20T14:39:34;3.50;99.90
3566;DHT22;1797;51.844;7.684;2022-11-20T14:42:01;3.50;52.20
3566;DHT22;1797;51.844;7.684;2022-11-20T14:44:31;3.40;70.10
3566;DHT22;1797;51.844;7.684;2022-11-20T14:46:59;3.40;99.90
3566;DHT22;1797;51.844;7.684;2022-11-20T14:49:25;3.40;99.90
3566;DHT22;1797;51.844;7.684;2022-11-20T14:52:02;3.40;99.90
3566;DHT22;1797;51.844;7.684;2022-11-20T14:54:28;3.30;99.90
3566;DHT22;1797;51.844;7.684;2022-11-20T14:57:00;3.30;99.90
3566;DHT22;1797;51.844;7.684;2022-11-20T14:59:29;3.40;99.90
3566;DHT22;1797;51.844;7.684;2022-11-20T15:02:11;3.40;99.90
3566;DHT22;1797;51.844;7.684;2022-11-20T15:04:47;3.40;92.40
3566;DHT22;1797;51.844;7.684;2022-11-20T15:07:27;3.30;99.90
3566;DHT22;1797;51.844;7.684;2022-11-20T15:10:06;3.30;99.90
3566;DHT22;1797;51.844;7.684;2022-11-20T15:12:36;3.30;99.90
3566;DHT22;1797;51.844;7.684;2022-11-20T15:15:03;3.20;99.90
3566;DHT22;1797;51.844;7.684;2022-11-20T15:17:31;3.20;99.90
3566;DHT22;1797;51.844;7.684;2022-11-20T15:19:59;3.20;99.90
3566;DHT22;1797;51.844;7.684;2022-11-20T15:22:25;3.30;99.90
3566;DHT22;1797;51.844;7.684;2022-11-20T15:24:51;3.30;99.90
3566;DHT22;1797;51.844;7.684;2022-11-20T15:27:16;3.20;99.90
3566;DHT22;1797;51.844;7.684;2022-11-20T15:29:42;3.30;99.90
3566;DHT22;1797;51.844;7.684;2022-11-20T15:32:09;3.20;99.90
3566;DHT22;1797;51.844;7.684;2022-11-20T15:34:34;3.20;99.90
3566;DHT22;1797;51.844;7.684;2022-11-20T15:37:00;3.10;1.00
3566;DHT22;1797;51.844;7.684;2022-11-20T15:39:25;3.10;1.00
3566;DHT22;1797;51.844;7.684;2022-11-20T15:41:51;3.10;1.00
3566;DHT22;1797;51.844;7.684;2022-11-20T15:44:17;3.10;1.00
3566;DHT22;1797;51.844;7.684;2022-11-20T15:46:42;3.10;1.00
3566;DHT22;1797;51.844;7.684;2022-11-20T15:49:15;3.10;1.00
3566;DHT22;1797;51.844;7.684;2022-11-20T15:51:44;3.10;1.00
3566;DHT22;1797;51.844;7.684;2022-11-20T15:54:18;3.00;1.00
3566;DHT22;1797;51.844;7.684;2022-11-20T15:56:48;3.00;1.00
3566;DHT22;1797;51.844;7.684;2022-11-20T15:59:14;3.00;17.70
3566;DHT22;1797;51.844;7.684;2022-11-20T16:01:40;3.00;99.90
3566;DHT22;1797;51.844;7.684;2022-11-20T16:04:14;3.00;99.90
3566;DHT22;1797;51.844;7.684;2022-11-20T16:06:40;3.00;99.90
3566;DHT22;1797;51.844;7.684;2022-11-20T16:09:07;2.90;99.90
3566;DHT22;1797;51.844;7.684;2022-11-20T16:11:33;3.00;1.00
3566;DHT22;1797;51.844;7.684;2022-11-20T16:14:02;3.00;1.00
3566;DHT22;1797;51.844;7.684;2022-11-20T16:16:46;3.00;1.00
3566;DHT22;1797;51.844;7.684;2022-11-20T16:19:15;3.00;1.00
3566;DHT22;1797;51.844;7.684;2022-11-20T16:21:41;3.00;1.00
3566;DHT22;1797;51.844;7.684;2022-11-20T16:24:10;3.00;1.00
3566;DHT22;1797;51.844;7.684;2022-11-20T16:26:37;3.00;1.00
3566;DHT22;1797;51.844;7.684;2022-11-20T16:29:04;3.00;1.00
3566;DHT22;1797;51.844;7.684;2022-11-20T16:31:30;2.90;1.00
3566;DHT22;1797;51.844;7.684;2022-11-20T16:33:58;3.00;1.00
3566;DHT22;1797;51.844;7.684;2022-11-20T16:36:25;3.00;99.90
3566;DHT22;1797;51.844;7.684;2022-11-20T16:38:59;2.90;1.00
3566;DHT22;1797;51.844;7.684;2022-11-20T16:41:26;2.90;1.00
3566;DHT22;1797;51.844;7.684;2022-11-20T16:43:54;2.90;99.90
3566;DHT22;1797;51.844;7.684;2022-11-20T16:46:23;2.90;1.00
3566;DHT22;1797;51.844;7.684;2022-11-20T16:48:54;2.90;1.00
3566;DHT22;1797;51.844;7.684;2022-11-20T16:51:20;2.90;99.90
3566;DHT22;1797;51.844;7.684;2022-11-20T16:53:46;2.90;1.00
3566;DHT22;1797;51.844;7.684;2022-11-20T16:56:14;2.90;1.00
3566;DHT22;1797;51.844;7.684;2022-11-20T16:58:42;3.00;80.10
3566;DHT22;1797;51.844;7.684;2022-11-20T17:01:08;3.00;99.90
3566;DHT22;1797;51.844;7.684;2022-11-20T17:03:42;3.00;1.00
3566;DHT22;1797;51.844;7.684;2022-11-20T17:06:16;2.90;99.90
3566;DHT22;1797;51.844;7.684;2022-11-20T17:08:42;2.90;1.00
3566;DHT22;1797;51.844;7.684;2022-11-20T17:11:09;2.90;1.00
3566;DHT22;1797;51.844;7.684;2022-11-20T17:13:35;2.80;1.00
3566;DHT22;1797;51.844;7.684;2022-11-20T17:16:06;2.90;1.00
3566;DHT22;1797;51.844;7.684;2022-11-20T17:18:32;2.80;99.90
3566;DHT22;1797;51.844;7.684;2022-11-20T17:20:59;2.80;99.90
3566;DHT22;1797;51.844;7.684;2022-11-20T17:23:29;2.80;1.00
3566;DHT22;1797;51.844;7.684;2022-11-20T17:28:31;2.70;1.00
3566;DHT22;1797;51.844;7.684;2022-11-20T17:31:11;2.70;1.00
3566;DHT22;1797;51.844;7.684;2022-11-20T17:33:39;2.70;99.90
3566;DHT22;1797;51.844;7.684;2022-11-20T17:36:07;2.70;99.90
3566;DHT22;1797;51.844;7.684;2022-11-20T17:38:33;2.70;1.00
3566;DHT22;1797;51.844;7.684;2022-11-20T17:41:04;2.60;1.00
3566;DHT22;1797;51.844;7.684;2022-11-20T17:43:30;2.60;1.00
3566;DHT22;1797;51.844;7.684;2022-11-20T17:45:56;2.60;1.00
3566;DHT22;1797;51.844;7.684;2022-11-20T17:48:21;2.60;1.00
3566;DHT22;1797;51.844;7.684;2022-11-20T17:50:47;2.60;40.00
3566;DHT22;1797;51.844;7.684;2022-11-20T17:53:13;2.50;98.20
3566;DHT22;1797;51.844;7.684;2022-11-20T17:55:38;2.50;99.90
3566;DHT22;1797;51.844;7.684;2022-11-20T17:58:25;2.50;99.90
3566;DHT22;1797;51.844;7.684;2022-11-20T18:00:51;2.50;99.90
3566;DHT22;1797;51.844;7.684;2022-11-20T18:03:17;2.50;99.90
3566;DHT22;1797;51.844;7.684;2022-11-20T18:05:42;2.50;99.90